Time;durP1;ratioP1;P1;durP2;ratioP2;P2;SDS_P1;SDS_P2;PMS_P1;PMS_P2;Temp;Humidity;BMP_temperature;BMP_pressure;BME280_temperature;BME280_humidity;BME280_pressure;Samples;Min_cycle;Max_cycle;Signal;HPM_P1;HPM_P2
2021/06/10 06:39:53;;;;;;;7.07;2.35;;;;;;;23.61;44.02;102172.94;5182475;27;125542;-92
2021/06/10 06:42:18;;;;;;;9.25;2.33;;;;;;;23.60;43.99;102172.94;5163377;27;20035;-91
2021/06/10 06:51:28;;;;;;;6.90;2.40;;;;;;;23.65;43.39;102178.13;5155237;22;20132;-94
2021/06/10 06:53:56;;;;;;;6.07;2.53;;;;;;;23.65;43.41;102183.41;5115187;28;20016;-95
2021/06/10 06:56:25;;;;;;;6.50;2.40;;;;;;;23.41;43.28;102190.75;5082679;28;20035;-94
2021/06/10 06:58:53;;;;;;;7.75;2.60;;;;;;;23.39;43.63;102187.25;5099309;28;20032;-95
2021/06/10 07:01:21;;;;;;;6.55;2.20;;;;;;;23.33;43.49;102185.56;5103244;28;20035;-93
2021/06/10 07:03:53;;;;;;;7.78;2.22;;;;;;;23.41;43.54;102182.84;5108256;28;20024;-94
2021/06/10 07:06:29;;;;;;;5.03;2.33;;;;;;;23.51;43.45;102187.09;5095393;28;20118;-94
2021/06/10 07:12:17;;;;;;;7.82;2.55;;;;;;;23.39;43.76;102198.63;5114997;28;20039;-94
2021/06/10 07:14:43;;;;;;;6.68;2.35;;;;;;;23.45;43.65;102202.06;5080847;28;20024;-93
2021/06/10 07:17:09;;;;;;;11.02;2.70;;;;;;;23.38;43.54;102198.63;5108788;28;20024;-93
2021/06/10 07:19:34;;;;;;;6.93;2.85;;;;;;;23.57;43.44;102201.91;5114698;28;20043;-92
2021/06/10 07:22:01;;;;;;;4.93;2.30;;;;;;;23.62;43.42;102200.94;5118353;28;20024;-92
2021/06/10 07:24:26;;;;;;;6.40;2.38;;;;;;;23.63;43.05;102201.84;5079210;28;20028;-92
2021/06/10 07:26:51;;;;;;;7.10;2.88;;;;;;;23.58;43.67;102209.78;5095196;28;20054;-92
2021/06/10 07:36:01;;;;;;;8.38;2.50;;;;;;;23.56;43.65;102216.81;5112667;28;20539;-94
2021/06/10 07:38:29;;;;;;;5.72;2.80;;;;;;;23.44;44.24;102226.59;5094823;28;20028;-94
2021/06/10 07:40:54;;;;;;;8.70;2.85;;;;;;;23.24;44.57;102232.09;5094962;28;20016;-91
2021/06/10 07:43:20;;;;;;;8.40;2.92;;;;;;;23.30;44.36;102222.38;5113484;28;20032;-92
2021/06/10 07:49:07;;;;;;;9.93;2.90;;;;;;;23.32;44.59;102225.88;5111130;28;20415;-91
2021/06/10 07:51:32;;;;;;;7.38;2.85;;;;;;;23.40;43.95;102231.88;5077750;28;20057;-90
2021/06/10 07:53:58;;;;;;;11.05;3.28;;;;;;;23.31;44.37;102233.75;5076766;28;20032;-92
2021/06/10 07:56:24;;;;;;;11.10;2.95;;;;;;;23.34;44.42;102239.84;5076756;28;20091;-92
2021/06/10 07:58:49;;;;;;;8.93;2.95;;;;;;;23.48;43.95;102231.81;5077041;28;20051;-92
2021/06/10 08:01:14;;;;;;;6.03;2.88;;;;;;;23.62;44.29;102223.72;5082800;28;20024;-94
2021/06/10 08:03:41;;;;;;;7.53;2.83;;;;;;;23.66;43.93;102217.56;5082047;28;20020;-91
2021/06/10 08:06:21;;;;;;;6.63;2.90;;;;;;;23.70;43.79;102215.75;5082710;28;20029;-94
2021/06/10 08:08:50;;;;;;;8.13;2.70;;;;;;;23.76;43.90;102228.84;5067781;28;20028;-94
2021/06/10 08:11:53;;;;;;;;;;;;;;;;;;;;;
2021/06/10 08:14:18;;;;;;;9.95;3.17;;;;;;;23.54;43.58;102225.59;5088686;28;20056;-93
2021/06/10 08:16:44;;;;;;;6.97;2.80;;;;;;;23.65;43.61;102217.56;5083906;28;20475;-92
2021/06/10 08:19:09;;;;;;;10.70;2.92;;;;;;;23.71;43.47;102218.34;5083255;28;20096;-91
2021/06/10 08:21:37;;;;;;;5.32;2.50;;;;;;;23.72;43.38;102227.13;5049713;28;20043;-91
2021/06/10 08:27:28;;;;;;;9.65;2.67;;;;;;;23.61;42.99;102214.13;5077639;28;20039;-91
2021/06/10 08:30:38;;;;;;;6.30;2.47;;;;;;;23.70;43.08;102215.75;5061738;28;20032;-92
2021/06/10 08:33:53;;;;;;;5.35;2.42;;;;;;;23.58;43.15;102227.28;5043457;28;20533;-91
2021/06/10 08:36:59;;;;;;;14.90;3.00;;;;;;;23.36;43.00;102222.28;5081618;28;20035;-92
2021/06/10 08:43:29;;;;;;;8.20;2.72;;;;;;;23.45;42.53;102228.34;5040500;28;20041;-93
2021/06/10 08:46:03;;;;;;;5.15;2.60;;;;;;;23.39;42.92;102214.41;5021731;28;20030;-90
2021/06/10 08:48:39;;;;;;;8.25;2.72;;;;;;;23.41;42.47;102219.63;5018073;28;20025;-92
2021/06/10 08:51:14;;;;;;;5.50;2.30;;;;;;;23.51;42.60;102218.63;5037094;28;20052;-92
2021/06/10 08:53:47;;;;;;;4.78;2.42;;;;;;;23.49;42.53;102220.38;5021951;28;20060;-92
2021/06/10 09:00:12;;;;;;;6.93;2.90;;;;;;;23.61;42.97;102219.38;5042978;28;20084;-96
2021/06/10 09:02:49;;;;;;;4.43;2.37;;;;;;;23.64;42.88;102210.59;5119556;22;20052;-93
2021/06/10 09:05:42;;;;;;;4.07;2.22;;;;;;;23.65;42.87;102202.69;5101140;28;20074;-92
2021/06/10 09:08:10;;;;;;;5.72;2.33;;;;;;;23.64;42.87;102205.31;5123955;28;20034;-91
2021/06/10 09:10:57;;;;;;;6.43;2.53;;;;;;;23.63;43.09;102209.72;5106079;28;20031;-92
2021/06/10 09:13:45;;;;;;;4.45;2.33;;;;;;;23.57;43.26;102210.66;5116240;28;20038;-91
2021/06/10 09:16:55;;;;;;;7.65;2.55;;;;;;;23.59;42.83;102203.63;5101936;28;20028;-91
2021/06/10 09:19:20;;;;;;;5.53;2.28;;;;;;;23.66;42.72;102200.91;5045472;28;20123;-90
2021/06/10 09:21:58;;;;;;;7.78;2.50;;;;;;;23.73;41.96;102205.19;5096099;28;20059;-92
2021/06/10 09:28:01;;;;;;;4.82;2.20;;;;;;;23.70;41.79;102197.38;5103794;28;20039;-91
2021/06/10 09:30:27;;;;;;;6.68;2.00;;;;;;;23.73;41.96;102199.94;5085857;28;20031;-93
2021/06/10 09:33:02;;;;;;;5.78;2.30;;;;;;;23.71;41.71;102199.94;5081827;28;20094;-93
2021/06/10 09:39:44;;;;;;;6.70;2.10;;;;;;;23.74;41.55;102210.44;5104894;28;20130;-92
2021/06/10 09:42:46;;;;;;;6.22;1.95;;;;;;;23.69;41.39;102211.38;5021038;28;20037;-93
2021/06/10 09:47:51;;;;;;;7.15;2.00;;;;;;;23.71;41.70;102215.72;5107692;22;20055;-92
2021/06/10 09:50:27;;;;;;;5.45;2.30;;;;;;;23.72;42.36;102213.97;5080287;28;20021;-90
2021/06/10 09:52:54;;;;;;;5.57;2.13;;;;;;;23.78;41.82;102213.94;5080294;28;20035;-90
2021/06/10 09:55:59;;;;;;;3.47;2.28;;;;;;;23.80;42.94;102218.28;5078348;28;20081;-92
2021/06/10 09:58:24;;;;;;;6.03;2.50;;;;;;;23.78;44.29;102221.81;5080765;28;20032;-92
2021/06/10 10:01:05;;;;;;;10.23;2.85;;;;;;;23.73;44.95;102219.19;5098035;28;20151;-92
2021/06/10 10:03:43;;;;;;;10.38;3.03;;;;;;;23.69;45.08;102220.16;5064320;28;20028;-92
2021/06/10 10:09:30;;;;;;;7.78;2.88;;;;;;;23.74;45.10;102230.59;5096420;28;20043;-90
2021/06/10 10:11:56;;;;;;;8.02;2.75;;;;;;;23.74;45.50;102243.75;5078600;28;20115;-90
2021/06/10 10:14:21;;;;;;;9.88;3.22;;;;;;;23.67;45.78;102240.31;5076561;28;20145;-90
2021/06/10 10:16:47;;;;;;;8.70;3.30;;;;;;;23.63;45.37;102241.25;5077020;28;20055;-91
2021/06/10 10:19:12;;;;;;;7.32;3.50;;;;;;;23.57;45.68;102236.06;5076925;28;20028;-90
2021/06/10 10:21:38;;;;;;;8.13;2.88;;;;;;;23.60;46.02;102238.66;5077471;28;20542;-92
2021/06/10 10:24:06;;;;;;;6.40;3.10;;;;;;;23.61;46.16;102241.25;5077061;28;20019;-91
2021/06/10 10:26:33;;;;;;;7.25;2.97;;;;;;;23.60;45.95;102239.53;5076825;28;20031;-93
2021/06/10 10:29:01;;;;;;;5.20;2.80;;;;;;;23.60;46.27;102238.66;5077079;28;20024;-91
2021/06/10 10:31:28;;;;;;;9.10;2.70;;;;;;;23.61;45.78;102235.16;5076851;28;20017;-93
2021/06/10 10:33:54;;;;;;;7.78;2.60;;;;;;;23.68;45.75;102235.94;5076667;28;20028;-91
2021/06/10 10:36:28;;;;;;;8.48;2.60;;;;;;;23.69;45.77;102225.41;5060761;28;20031;-91
2021/06/10 10:39:06;;;;;;;6.70;2.78;;;;;;;23.70;45.41;102226.28;5095387;28;20490;-91
2021/06/10 10:41:46;;;;;;;6.50;2.85;;;;;;;23.68;45.69;102222.78;5078053;28;20039;-92
2021/06/10 10:47:14;;;;;;;6.00;2.47;;;;;;;23.73;44.93;102219.19;5089648;28;20402;-91
2021/06/10 10:49:46;;;;;;;5.20;2.40;;;;;;;23.73;44.74;102226.22;5079053;28;20032;-89
2021/06/10 10:52:14;;;;;;;5.05;2.28;;;;;;;23.70;44.54;102218.38;5076423;28;20020;-91
2021/06/10 10:54:41;;;;;;;5.15;2.35;;;;;;;23.67;44.75;102221.03;5076669;28;20032;-90
2021/06/10 10:57:50;;;;;;;11.50;2.83;;;;;;;23.67;44.66;102226.28;5076336;28;20047;-89
2021/06/10 11:00:20;;;;;;;11.27;2.80;;;;;;;23.65;45.03;102220.19;5093680;28;20036;-91
2021/06/10 11:03:06;;;;;;;7.40;2.65;;;;;;;23.65;45.10;102215.81;5076781;28;20069;-92
2021/06/10 11:05:32;;;;;;;5.85;2.85;;;;;;;23.69;45.16;102209.66;5093103;28;20028;-92
2021/06/10 11:07:58;;;;;;;6.30;2.50;;;;;;;23.69;45.14;102211.38;5076032;28;20036;-90
2021/06/10 11:10:39;;;;;;;7.22;3.15;;;;;;;23.68;45.47;102210.50;5094633;28;20424;-90
2021/06/10 11:13:15;;;;;;;14.23;3.20;;;;;;;23.70;45.38;102213.13;5076783;28;20028;-89
2021/06/10 11:15:43;;;;;;;10.05;3.08;;;;;;;23.71;45.65;102209.59;5076273;28;20048;-89
2021/06/10 11:18:09;;;;;;;8.43;3.13;;;;;;;23.66;46.19;102214.91;5076074;28;20107;-90
2021/06/10 11:20:38;;;;;;;8.25;3.15;;;;;;;23.68;46.40;102217.53;5076617;28;20028;-91
2021/06/10 11:23:11;;;;;;;9.18;2.85;;;;;;;23.69;46.25;102219.25;5076018;28;20102;-89
2021/06/10 11:25:41;;;;;;;7.25;3.00;;;;;;;23.66;45.83;102216.69;5078562;28;20127;-92
2021/06/10 11:31:31;;;;;;;5.82;3.13;;;;;;;23.62;46.47;102211.44;5098753;28;20085;-93
2021/06/10 11:34:16;;;;;;;10.73;3.20;;;;;;;23.64;46.58;102214.06;5080144;28;20108;-91
2021/06/10 11:36:55;;;;;;;9.85;3.00;;;;;;;23.65;46.19;102210.56;5064749;28;20490;-91
2021/06/10 11:39:30;;;;;;;;;;;;;;;;;;;;;
2021/06/10 11:42:12;;;;;;;10.90;3.40;;;;;;;23.59;46.32;102202.75;5098354;28;20096;-91
2021/06/10 11:44:47;;;;;;;8.85;2.90;;;;;;;23.61;46.52;102199.22;5062957;28;20028;-90
2021/06/10 11:47:26;;;;;;;9.98;3.13;;;;;;;23.61;46.50;102204.47;5079385;28;20040;-91
2021/06/10 11:49:52;;;;;;;9.25;2.60;;;;;;;23.60;46.30;102207.13;5063492;28;20211;-90
2021/06/10 11:52:17;;;;;;;6.95;3.15;;;;;;;23.66;46.39;102204.41;5098016;28;20040;-91
2021/06/10 11:55:04;;;;;;;8.95;3.00;;;;;;;23.70;46.50;102202.63;5080053;28;20031;-91
2021/06/10 11:57:35;;;;;;;6.85;2.83;;;;;;;23.72;46.30;102200.84;5080858;28;20115;-91
2021/06/10 12:00:09;;;;;;;7.43;2.85;;;;;;;23.74;46.18;102199.06;5092881;28;20040;-92
2021/06/10 12:02:35;;;;;;;4.93;2.58;;;;;;;23.75;46.21;102195.53;5063919;28;20034;-93
2021/06/10 12:05:14;;;;;;;6.90;2.65;;;;;;;23.81;45.91;102200.75;5062891;28;20024;-89
2021/06/10 12:07:40;;;;;;;4.93;2.17;;;;;;;23.85;45.80;102202.44;5081740;28;20497;-90
2021/06/10 12:10:09;;;;;;;4.20;2.20;;;;;;;23.88;46.08;102198.88;5093129;28;20083;-89
2021/06/10 12:12:40;;;;;;;6.35;2.50;;;;;;;23.91;45.98;102197.09;5115833;28;20044;-89
2021/06/10 12:15:08;;;;;;;4.45;2.05;;;;;;;23.94;45.66;102194.41;5080781;28;20024;-88
2021/06/10 12:17:54;;;;;;;6.30;2.15;;;;;;;23.99;45.44;102200.44;5078634;28;20023;-91
2021/06/10 12:20:22;;;;;;;7.82;2.38;;;;;;;24.00;45.72;102196.09;5061947;28;20024;-92
2021/06/10 12:22:49;;;;;;;8.77;2.33;;;;;;;24.02;45.49;102197.78;5078800;28;20408;-88
2021/06/10 12:25:17;;;;;;;9.52;2.47;;;;;;;24.00;45.75;102196.94;5095803;28;20116;-89
2021/06/10 12:27:43;;;;;;;7.65;2.22;;;;;;;24.00;45.62;102190.84;5099548;28;20020;-89
2021/06/10 12:30:38;;;;;;;6.97;2.20;;;;;;;24.01;45.88;102193.41;5082159;28;20027;-90
2021/06/10 12:33:14;;;;;;;5.65;2.00;;;;;;;24.02;45.94;102194.31;5082767;28;20115;-91
2021/06/10 12:35:42;;;;;;;6.97;2.30;;;;;;;24.05;45.98;102191.63;5081329;28;20024;-89
2021/06/10 12:38:11;;;;;;;5.68;2.10;;;;;;;24.06;45.88;102188.09;5081230;28;20027;-91
2021/06/10 12:40:41;;;;;;;4.88;1.88;;;;;;;24.08;45.58;102190.69;5098447;28;20390;-90
2021/06/10 12:43:15;;;;;;;7.72;1.90;;;;;;;24.08;45.82;102191.56;5079507;28;20033;-89
2021/06/10 12:45:40;;;;;;;4.50;2.28;;;;;;;24.07;45.90;102192.47;5079406;28;20031;-89
2021/06/10 12:48:27;;;;;;;3.83;2.30;;;;;;;24.10;45.49;102191.53;5082036;28;20032;-90
2021/06/10 12:51:17;;;;;;;4.45;2.10;;;;;;;24.13;45.50;102188.88;5098292;28;20154;-90
2021/06/10 12:54:12;;;;;;;5.78;2.00;;;;;;;24.11;45.20;102190.66;5080280;28;20024;-89
2021/06/10 12:56:47;;;;;;;4.03;1.60;;;;;;;24.10;45.01;102191.53;5080396;28;20028;-89
2021/06/10 12:59:24;;;;;;;4.55;1.70;;;;;;;24.13;44.95;102175.72;5079913;28;20042;-91
2021/06/10 13:02:02;;;;;;;4.20;1.80;;;;;;;24.13;45.14;102179.22;5081390;28;20024;-91
2021/06/10 13:05:18;;;;;;;2.75;1.70;;;;;;;24.11;44.93;102170.50;5102684;28;20024;-90
2021/06/10 13:08:02;;;;;;;;;;;;;;;;;;;;;
2021/06/10 13:10:33;;;;;;;4.43;1.80;;;;;;;24.17;44.67;102161.63;5099122;28;20099;-88
2021/06/10 13:12:59;;;;;;;1.60;1.20;;;;;;;24.18;44.33;102166.00;5080628;28;20024;-89
2021/06/10 13:15:47;;;;;;;2.25;1.33;;;;;;;24.25;44.43;102172.03;5067429;28;20050;-88
2021/06/10 13:18:15;;;;;;;3.38;1.42;;;;;;;24.22;44.37;102163.28;5100690;28;20424;-88
2021/06/10 13:21:05;;;;;;;3.70;1.50;;;;;;;24.26;44.63;102168.47;5081625;28;20024;-88
2021/06/10 13:23:30;;;;;;;2.22;1.30;;;;;;;24.29;44.32;102171.09;5082018;28;20423;-90
2021/06/10 13:26:06;;;;;;;2.60;1.45;;;;;;;24.24;44.51;102165.91;5083306;28;20031;-87
2021/06/10 13:28:32;;;;;;;2.53;1.38;;;;;;;24.23;44.85;102170.28;5079600;28;20028;-88
2021/06/10 13:31:11;;;;;;;2.92;1.50;;;;;;;24.23;44.85;102167.63;5062148;28;20024;-88
2021/06/10 13:33:36;;;;;;;4.28;1.40;;;;;;;24.22;44.71;102170.31;5078902;28;20039;-88
2021/06/10 13:36:13;;;;;;;4.70;1.48;;;;;;;24.24;44.65;102165.91;5063421;28;20016;-88
2021/06/10 13:38:39;;;;;;;2.47;1.42;;;;;;;24.26;44.89;102174.63;5078671;28;20127;-88
2021/06/10 13:41:06;;;;;;;2.75;1.38;;;;;;;24.29;45.02;102173.72;5078296;28;20060;-89
2021/06/10 13:43:33;;;;;;;2.13;1.38;;;;;;;24.25;45.06;102165.00;5046210;28;20056;-89
2021/06/10 13:45:58;;;;;;;2.05;1.45;;;;;;;24.26;44.87;102172.00;5063770;28;20510;-88
2021/06/10 13:48:24;;;;;;;2.58;1.60;;;;;;;24.25;44.66;102165.00;5063927;28;20055;-90
2021/06/10 13:50:49;;;;;;;4.63;1.92;;;;;;;24.28;45.20;102178.13;5080339;28;20067;-89
2021/06/10 13:53:15;;;;;;;3.15;1.55;;;;;;;24.29;44.84;102173.72;5063079;28;20118;-89
2021/06/10 13:55:40;;;;;;;4.47;1.70;;;;;;;24.30;44.73;102172.81;5079496;28;20512;-89
2021/06/10 13:58:06;;;;;;;2.45;1.77;;;;;;;24.29;44.97;102174.56;5080472;28;20027;-88
2021/06/10 14:00:34;;;;;;;3.05;1.70;;;;;;;24.29;45.28;102168.44;5080582;28;20020;-88
2021/06/10 14:03:06;;;;;;;3.67;1.60;;;;;;;24.28;44.90;102161.44;5100727;28;20046;-88
2021/06/10 14:05:31;;;;;;;2.10;1.70;;;;;;;24.29;45.14;102160.56;5082069;28;20028;-88
2021/06/10 14:07:57;;;;;;;5.20;1.80;;;;;;;24.29;45.16;102157.94;5081694;28;20110;-91
2021/06/10 14:10:23;;;;;;;1.98;1.63;;;;;;;24.27;45.05;102157.94;5064249;28;20031;-91
2021/06/10 14:12:50;;;;;;;4.13;2.08;;;;;;;24.28;45.44;102154.44;5082087;28;20044;-88
2021/06/10 14:15:16;;;;;;;2.40;1.67;;;;;;;24.27;45.07;102151.81;5082662;28;20024;-88
2021/06/10 14:17:42;;;;;;;4.03;1.75;;;;;;;24.29;45.54;102153.53;5081392;28;20055;-88
2021/06/10 14:20:08;;;;;;;2.45;1.80;;;;;;;24.30;45.37;102155.28;5080978;28;20024;-88
2021/06/10 14:32:23;;;;;;;2.42;1.90;;;;;;;24.39;45.19;102156.88;5101003;28;20058;-90
2021/06/10 14:34:51;;;;;;;2.58;1.42;;;;;;;24.36;45.69;102147.25;5071118;28;20024;-90
2021/06/10 14:37:17;;;;;;;3.60;1.92;;;;;;;24.38;45.57;102156.00;5087758;28;20470;-90
2021/06/10 14:39:44;;;;;;;3.80;1.83;;;;;;;24.39;45.52;102159.53;5085733;28;20047;-89
2021/06/10 14:42:11;;;;;;;4.13;1.88;;;;;;;24.37;45.98;102162.16;5083453;28;20024;-89
2021/06/10 14:44:37;;;;;;;3.95;1.95;;;;;;;24.36;45.93;102157.78;5082255;28;20021;-90
2021/06/10 14:47:03;;;;;;;7.15;1.98;;;;;;;24.36;45.55;102163.03;5080714;28;20050;-90
2021/06/10 14:49:28;;;;;;;2.38;1.80;;;;;;;24.34;45.66;102159.56;5079163;28;20059;-91
2021/06/10 14:52:13;;;;;;;3.20;1.95;;;;;;;24.36;45.64;102167.44;5078497;28;20362;-90
2021/06/10 14:54:39;;;;;;;2.72;2.00;;;;;;;24.34;45.84;102164.84;5078372;28;20032;-91
2021/06/10 14:57:04;;;;;;;5.15;2.13;;;;;;;24.33;45.76;102171.00;5077582;28;20074;-91
2021/06/10 14:59:30;;;;;;;4.13;2.30;;;;;;;24.29;46.02;102171.94;5078435;28;20027;-90
2021/06/10 15:01:59;;;;;;;4.07;2.30;;;;;;;24.27;45.85;102168.47;5084060;28;20454;-89
2021/06/10 15:04:24;;;;;;;4.45;2.67;;;;;;;24.25;45.96;102169.41;5083123;28;20119;-90
2021/06/10 15:06:50;;;;;;;3.97;2.53;;;;;;;24.26;46.35;102176.38;5083035;28;20063;-90
2021/06/10 15:09:15;;;;;;;3.38;2.40;;;;;;;24.23;45.91;102172.03;5080634;28;20028;-91
2021/06/10 15:11:41;;;;;;;5.07;2.58;;;;;;;24.25;46.03;102172.03;5097940;28;20531;-91
2021/06/10 15:14:09;;;;;;;5.28;2.83;;;;;;;24.22;45.76;102171.19;5080256;28;20032;-91
2021/06/10 15:16:35;;;;;;;6.45;3.00;;;;;;;24.16;45.98;102166.00;5064039;28;20024;-91
2021/06/10 15:19:00;;;;;;;6.82;3.60;;;;;;;24.13;46.53;102167.84;5079533;28;20031;-91
2021/06/10 15:21:26;;;;;;;7.18;3.40;;;;;;;24.13;46.47;102171.34;5079396;28;20493;-91
2021/06/10 15:23:52;;;;;;;4.05;3.08;;;;;;;24.15;46.41;102163.41;5079477;28;20020;-91
2021/06/10 15:26:18;;;;;;;6.28;3.28;;;;;;;24.14;46.35;102172.19;5079315;28;20032;-91
2021/06/10 15:28:45;;;;;;;4.18;2.92;;;;;;;24.13;46.33;102162.59;5079321;28;20024;-91
2021/06/10 15:31:11;;;;;;;5.35;3.17;;;;;;;24.16;46.60;102159.91;5079255;28;20031;-90
2021/06/10 15:33:39;;;;;;;5.03;2.95;;;;;;;24.19;46.43;102165.97;5079182;28;20063;-91
2021/06/10 15:36:07;;;;;;;3.72;2.78;;;;;;;24.18;46.44;102158.97;5063099;28;20046;-91
2021/06/10 15:38:33;;;;;;;3.92;2.90;;;;;;;24.19;45.89;102155.47;5079107;28;20036;-90
2021/06/10 15:40:59;;;;;;;5.25;2.80;;;;;;;24.23;46.12;102148.38;5079061;28;20520;-90
2021/06/10 15:43:24;;;;;;;5.90;2.92;;;;;;;24.24;46.31;102152.75;5062184;28;20032;-92
2021/06/10 15:45:51;;;;;;;3.65;2.80;;;;;;;24.26;46.21;102148.34;5079765;28;20020;-90
2021/06/10 15:48:17;;;;;;;4.03;2.63;;;;;;;24.27;46.18;102147.44;5079028;28;20031;-90
2021/06/10 15:50:42;;;;;;;3.88;2.33;;;;;;;24.26;46.40;102140.44;5079595;28;20024;-91
2021/06/10 15:53:09;;;;;;;6.68;2.70;;;;;;;24.29;46.23;102147.41;5079304;28;20020;-91
2021/06/10 15:55:35;;;;;;;4.68;2.58;;;;;;;24.31;45.96;102137.72;5079473;28;20420;-90
2021/06/10 15:58:00;;;;;;;5.47;2.53;;;;;;;24.30;46.26;102135.97;5062226;28;20032;-90
2021/06/10 16:00:26;;;;;;;4.35;2.67;;;;;;;24.32;45.94;102140.31;5061721;28;20025;-90
2021/06/10 16:02:51;;;;;;;2.70;2.30;;;;;;;24.28;46.24;102138.66;5078225;28;20566;-91
2021/06/10 16:05:21;;;;;;;4.80;2.75;;;;;;;24.30;46.29;102142.13;5078926;28;20028;-91
2021/06/10 16:07:49;;;;;;;5.18;2.97;;;;;;;24.29;46.08;102145.63;5062825;28;20119;-91
2021/06/10 16:10:15;;;;;;;5.22;3.00;;;;;;;24.27;46.03;102134.28;5078629;28;20051;-90
2021/06/10 16:12:42;;;;;;;4.55;3.00;;;;;;;24.21;46.15;102132.63;5079154;28;20044;-91
2021/06/10 16:15:12;;;;;;;7.70;3.40;;;;;;;24.20;46.25;102143.16;5062587;28;20050;-90
2021/06/10 16:17:38;;;;;;;4.78;2.97;;;;;;;24.18;46.19;102134.44;5062307;28;20492;-90
2021/06/10 16:20:07;;;;;;;4.53;3.30;;;;;;;24.19;46.04;102136.16;5079280;28;20031;-90
2021/06/10 16:22:32;;;;;;;4.05;2.97;;;;;;;24.19;45.99;102141.41;5079290;28;20024;-90
2021/06/10 16:24:58;;;;;;;7.22;3.35;;;;;;;24.15;46.24;102131.84;5062855;28;20081;-90
2021/06/10 16:27:24;;;;;;;5.50;3.80;;;;;;;24.15;46.23;102129.22;5079489;28;20477;-90
2021/06/10 16:29:53;;;;;;;6.25;4.00;;;;;;;24.13;45.97;102134.50;5082039;28;20024;-92
2021/06/10 16:32:19;;;;;;;5.38;3.90;;;;;;;24.10;46.36;102125.81;5064486;28;20096;-91
2021/06/10 16:34:45;;;;;;;6.03;4.03;;;;;;;24.12;45.87;102132.75;5082736;28;20567;-90
2021/06/10 16:37:10;;;;;;;7.80;4.22;;;;;;;24.17;45.95;102130.06;5063829;28;20127;-90
2021/06/10 16:39:44;;;;;;;6.10;4.25;;;;;;;24.15;45.98;102119.59;5062541;28;20108;-90
2021/06/10 16:42:11;;;;;;;10.20;6.05;;;;;;;24.14;46.44;102120.47;5079338;28;20024;-91
2021/06/10 16:44:37;;;;;;;21.88;10.57;;;;;;;24.16;46.38;102123.06;5078229;28;20030;-92
2021/06/10 16:47:03;;;;;;;24.45;11.90;;;;;;;24.15;46.68;102116.06;5078994;28;20067;-90
2021/06/10 16:49:29;;;;;;;19.73;9.15;;;;;;;24.18;46.40;102113.41;5062053;28;20386;-90
2021/06/10 16:51:55;;;;;;;19.90;8.52;;;;;;;24.20;46.57;102116.88;5078110;28;20027;-90
2021/06/10 16:54:20;;;;;;;17.52;7.80;;;;;;;24.20;46.90;102109.84;5078346;28;20046;-89
2021/06/10 16:56:48;;;;;;;15.52;6.43;;;;;;;24.19;47.66;102110.75;5078576;28;20024;-89
2021/06/10 16:59:14;;;;;;;14.43;7.18;;;;;;;24.19;48.11;102099.34;5062035;28;20028;-90
2021/06/10 17:07:35;;;;;;;9.27;5.35;;;;;;;24.14;47.54;102102.03;5108270;28;20043;-90
2021/06/10 17:10:01;;;;;;;11.02;4.97;;;;;;;24.09;47.00;102101.28;5060795;28;20028;-91
2021/06/10 17:12:28;;;;;;;6.95;4.82;;;;;;;24.10;47.17;102099.50;5082843;28;20020;-90
2021/06/10 17:14:53;;;;;;;8.77;4.32;;;;;;;24.07;47.04;102095.16;5078683;28;20070;-89
2021/06/10 17:17:19;;;;;;;6.85;4.85;;;;;;;24.03;46.80;102094.34;5078362;28;20036;-90
2021/06/10 17:19:44;;;;;;;5.18;4.57;;;;;;;24.01;46.61;102096.13;5077659;28;20074;-91
2021/06/10 17:22:12;;;;;;;5.75;4.38;;;;;;;23.97;46.63;102094.44;5095057;28;20031;-90
2021/06/10 17:24:38;;;;;;;7.22;4.57;;;;;;;23.98;46.55;102090.06;5095672;28;20028;-89
2021/06/10 17:27:09;;;;;;;6.13;4.63;;;;;;;23.94;46.66;102091.00;5077528;28;20050;-91
2021/06/10 17:29:37;;;;;;;5.15;4.13;;;;;;;23.94;46.76;102086.63;5060847;28;20399;-89
2021/06/10 17:32:03;;;;;;;5.63;4.50;;;;;;;23.91;46.38;102084.06;5077215;28;20109;-90
2021/06/10 17:34:28;;;;;;;6.47;4.43;;;;;;;23.91;46.54;102088.41;5061237;28;20482;-89
2021/06/10 17:36:56;;;;;;;6.13;4.43;;;;;;;23.92;46.80;102087.53;5096212;28;20028;-90
2021/06/10 17:39:24;;;;;;;5.65;4.03;;;;;;;23.89;46.37;102087.56;5060792;28;20120;-89
2021/06/10 17:41:49;;;;;;;5.50;4.32;;;;;;;23.88;46.62;102089.34;5065269;28;20024;-88
2021/06/10 17:44:15;;;;;;;6.75;4.63;;;;;;;23.86;46.58;102093.75;5069874;28;20026;-89
2021/06/10 17:46:52;;;;;;;;;;;;;;;;;;;;;
2021/06/10 17:49:18;;;;;;;6.05;4.45;;;;;;;23.78;46.72;102095.66;5098284;28;20123;-90
2021/06/10 17:51:48;;;;;;;6.95;4.40;;;;;;;23.77;46.76;102094.75;5084346;28;20544;-90
2021/06/10 17:54:17;;;;;;;8.57;4.85;;;;;;;23.76;47.13;102098.31;5062081;28;20115;-89
2021/06/10 17:56:45;;;;;;;6.10;5.38;;;;;;;23.72;46.92;102093.94;5060360;28;20487;-90
2021/06/10 17:59:10;;;;;;;6.05;5.45;;;;;;;23.65;47.37;102097.56;5076919;28;20482;-90
2021/06/10 18:01:36;;;;;;;6.20;5.10;;;;;;;23.70;47.69;102106.25;5095625;28;20116;-91
2021/06/10 18:04:40;;;;;;;9.23;6.30;;;;;;;23.66;47.42;102099.28;5077289;28;20055;-91
2021/06/10 18:07:05;;;;;;;9.45;5.70;;;;;;;23.70;47.23;102100.13;5075525;28;20036;-91
2021/06/10 18:09:57;;;;;;;10.40;5.82;;;;;;;23.71;47.60;102109.72;5076405;28;20440;-90
2021/06/10 18:16:22;;;;;;;11.50;7.10;;;;;;;23.53;47.72;102111.75;5095603;28;20055;-91
2021/06/10 18:18:55;;;;;;;11.77;6.47;;;;;;;23.57;47.48;102105.56;5077462;28;20044;-90
2021/06/10 18:21:20;;;;;;;8.27;6.43;;;;;;;23.59;47.44;102100.28;5076885;28;20116;-89
2021/06/10 18:23:49;;;;;;;11.05;6.22;;;;;;;23.57;47.55;102105.56;5076824;28;20056;-90
2021/06/10 18:26:20;;;;;;;9.68;7.22;;;;;;;23.51;47.79;102107.41;5077269;28;20024;-91
2021/06/10 18:28:46;;;;;;;9.85;7.38;;;;;;;23.51;47.93;102107.41;5058893;28;20063;-90
2021/06/10 18:31:14;;;;;;;11.50;7.70;;;;;;;23.52;47.96;102103.91;5073358;28;20036;-90
2021/06/10 18:33:40;;;;;;;9.90;7.50;;;;;;;23.56;47.98;102100.31;5076545;28;20027;-90
2021/06/10 18:36:06;;;;;;;11.13;8.02;;;;;;;23.48;47.84;102100.44;5076758;28;20024;-90
2021/06/10 18:38:31;;;;;;;10.23;8.25;;;;;;;23.44;47.97;102104.00;5076813;28;20024;-90
2021/06/10 18:40:57;;;;;;;9.50;7.75;;;;;;;23.42;47.80;102100.53;5043579;28;20035;-89
2021/06/10 18:43:23;;;;;;;9.32;8.00;;;;;;;23.36;48.26;102100.59;5077683;28;20051;-90
2021/06/10 18:45:48;;;;;;;9.70;7.53;;;;;;;23.33;48.21;102103.28;5042869;28;20020;-90
2021/06/10 18:48:15;;;;;;;9.80;7.40;;;;;;;23.33;48.00;102096.25;5076616;28;20044;-91
2021/06/10 18:50:43;;;;;;;9.85;7.53;;;;;;;23.32;48.19;102102.41;5076254;28;20020;-90
2021/06/10 18:53:09;;;;;;;11.98;7.70;;;;;;;23.22;48.59;102102.56;5076172;28;20351;-88
2021/06/10 18:58:15;;;;;;;10.00;7.22;;;;;;;23.15;48.80;102094.75;5111140;22;20052;-92
2021/06/10 19:00:46;;;;;;;12.23;7.53;;;;;;;23.17;48.61;102100.84;5077082;28;20020;-89
2021/06/10 19:03:18;;;;;;;10.18;7.10;;;;;;;23.23;48.67;102104.28;5077165;28;20054;-89
2021/06/10 19:05:43;;;;;;;9.57;8.02;;;;;;;23.20;48.80;102100.81;5112718;22;20047;-88
2021/06/10 19:08:08;;;;;;;8.93;7.85;;;;;;;23.17;48.32;102103.50;5115643;28;20024;-89
2021/06/10 19:10:34;;;;;;;9.48;7.85;;;;;;;23.18;48.64;102102.59;5099126;28;20119;-91
2021/06/10 19:12:59;;;;;;;10.65;7.45;;;;;;;23.24;48.93;102106.03;5100508;28;20054;-89
2021/06/10 19:15:25;;;;;;;8.93;7.28;;;;;;;23.36;48.82;102095.34;5115053;28;20027;-89
2021/06/10 19:17:54;;;;;;;8.52;6.80;;;;;;;23.38;48.60;102098.81;5097854;28;20039;-89
